Time;durP1;ratioP1;P1;durP2;ratioP2;P2;SDS_P1;SDS_P2;PMS_P1;PMS_P2;Temp;Humidity;BMP_temperature;BMP_pressure;BME280_temperature;BME280_humidity;BME280_pressure;Samples;Min_cycle;Max_cycle;Signal;HPM_P1;HPM_P2
2022/11/17 00:00:08;;;;;;;5.43;3.30;;;;;;;;;;5011207;28;20515;-72
2022/11/17 00:02:34;;;;;;;11.05;3.65;;;;;;;;;;5019684;28;20050;-72
2022/11/17 00:05:01;;;;;;;8.00;3.80;;;;;;;;;;5014761;28;20079;-71
2022/11/17 00:07:27;;;;;;;7.55;3.83;;;;;;;;;;5018746;28;20046;-71
2022/11/17 00:09:53;;;;;;;6.85;3.55;;;;;;;;;;5016617;28;20054;-71
2022/11/17 00:15:04;;;;;;;9.38;3.78;;;;;;;;;;5018025;28;20523;-71
2022/11/17 00:17:31;;;;;;;7.53;4.05;;;;;;;;;;5018469;28;20597;-71
2022/11/17 00:22:42;;;;;;;7.68;3.72;;;;;;;;;;5007595;28;20050;-71
2022/11/17 00:25:08;;;;;;;7.88;3.63;;;;;;;;;;5020256;28;20137;-71
2022/11/17 00:27:35;;;;;;;7.10;4.25;;;;;;;;;;5018930;28;20358;-72
2022/11/17 00:30:01;;;;;;;10.50;4.13;;;;;;;;;;5019429;28;20058;-71
2022/11/17 00:35:12;;;;;;;9.17;3.97;;;;;;;;;;5005556;28;20057;-72
2022/11/17 00:40:24;;;;;;;12.15;4.72;;;;;;;;;;5008566;28;20055;-72
2022/11/17 00:42:50;;;;;;;9.20;4.28;;;;;;;;;;5009306;28;20654;-72
2022/11/17 00:45:17;;;;;;;8.48;4.88;;;;;;;;;;5018253;28;21098;-71
2022/11/17 00:47:43;;;;;;;13.32;4.97;;;;;;;;;;5016719;28;20053;-71
2022/11/17 00:50:09;;;;;;;8.43;4.97;;;;;;;;;;5007925;28;20149;-72
2022/11/17 00:52:35;;;;;;;6.60;4.10;;;;;;;;;;5012625;28;20054;-72
2022/11/17 00:55:02;;;;;;;6.30;4.72;;;;;;;;;;5017933;28;20504;-72
2022/11/17 00:57:28;;;;;;;6.38;4.70;;;;;;;;;;5016499;28;20054;-72
2022/11/17 00:59:54;;;;;;;10.60;4.53;;;;;;;;;;5016767;28;20432;-72
2022/11/17 01:02:21;;;;;;;11.95;4.78;;;;;;;;;;5005479;28;20157;-72
2022/11/17 01:04:47;;;;;;;11.00;4.28;;;;;;;;;;5008258;28;20474;-72
2022/11/17 01:07:13;;;;;;;10.57;4.45;;;;;;;;;;5021666;28;20563;-72
2022/11/17 01:09:39;;;;;;;10.18;4.93;;;;;;;;;;5007211;28;20147;-72
2022/11/17 01:12:06;;;;;;;7.25;4.32;;;;;;;;;;5007695;28;20574;-72
2022/11/17 01:14:32;;;;;;;8.07;4.85;;;;;;;;;;5014056;28;20062;-72
2022/11/17 01:16:59;;;;;;;9.70;4.88;;;;;;;;;;5020327;28;20096;-72
2022/11/17 01:19:25;;;;;;;8.80;4.38;;;;;;;;;;5003888;28;20398;-72
2022/11/17 01:21:51;;;;;;;7.43;4.57;;;;;;;;;;5019599;28;20535;-72
2022/11/17 01:24:18;;;;;;;7.80;4.30;;;;;;;;;;5013372;28;20506;-72
2022/11/17 01:26:44;;;;;;;12.23;5.32;;;;;;;;;;5017920;28;20109;-72
2022/11/17 01:29:12;;;;;;;6.63;3.92;;;;;;;;;;5018693;28;20077;-72
2022/11/17 01:31:42;;;;;;;7.03;3.60;;;;;;;;;;5020286;28;20062;-73
2022/11/17 01:34:09;;;;;;;7.45;4.30;;;;;;;;;;5018951;28;20125;-72
2022/11/17 01:39:22;;;;;;;5.75;4.00;;;;;;;;;;5016020;28;20591;-72
2022/11/17 01:41:48;;;;;;;7.30;4.20;;;;;;;;;;5013180;28;20566;-72
2022/11/17 01:44:33;;;;;;;9.38;4.88;;;;;;;;;;5016268;28;20567;-73
2022/11/17 01:47:00;;;;;;;11.55;4.40;;;;;;;;;;5012792;28;20054;-73
2022/11/17 01:49:27;;;;;;;6.25;4.22;;;;;;;;;;5012661;28;20054;-72
2022/11/17 01:52:00;;;;;;;6.55;4.93;;;;;;;;;;5010539;28;20055;-72
2022/11/17 01:54:28;;;;;;;7.22;4.45;;;;;;;;;;5019647;28;20520;-72
2022/11/17 01:56:57;;;;;;;5.63;3.97;;;;;;;;;;5017456;28;20050;-73
2022/11/17 01:59:34;;;;;;;7.20;4.57;;;;;;;;;;5008853;28;20054;-73
2022/11/17 02:02:00;;;;;;;7.25;4.43;;;;;;;;;;5008990;28;20058;-72
2022/11/17 02:04:31;;;;;;;6.40;4.00;;;;;;;;;;5009351;28;20146;-72
2022/11/17 02:07:07;;;;;;;5.30;4.20;;;;;;;;;;5011306;28;20121;-72
2022/11/17 02:09:36;;;;;;;6.85;4.30;;;;;;;;;;5010835;28;20852;-72
2022/11/17 02:12:03;;;;;;;7.13;4.68;;;;;;;;;;5006478;28;20217;-72
2022/11/17 02:14:29;;;;;;;10.02;5.80;;;;;;;;;;5022373;28;20050;-71
2022/11/17 02:16:55;;;;;;;12.35;6.15;;;;;;;;;;5023118;28;20054;-71
2022/11/17 02:19:24;;;;;;;8.88;5.72;;;;;;;;;;5010806;28;20059;-71
2022/11/17 02:21:56;;;;;;;7.35;5.60;;;;;;;;;;5014762;28;20050;-72
2022/11/17 02:24:25;;;;;;;6.30;5.13;;;;;;;;;;5017227;28;20054;-71
2022/11/17 02:27:08;;;;;;;9.98;5.05;;;;;;;;;;5019805;28;20046;-72
2022/11/17 02:29:35;;;;;;;8.25;4.32;;;;;;;;;;5020151;28;20056;-71
2022/11/17 02:32:06;;;;;;;4.75;3.95;;;;;;;;;;5023716;28;20420;-71
2022/11/17 02:34:51;;;;;;;6.07;3.40;;;;;;;;;;5020771;28;20046;-71
2022/11/17 02:37:21;;;;;;;7.78;3.38;;;;;;;;;;5012500;28;20491;-71
2022/11/17 02:39:52;;;;;;;4.80;3.40;;;;;;;;;;5017587;28;20054;-72
2022/11/17 02:44:02;;;;;;;5.07;2.80;;;;;;;;;;5024113;28;20049;-71
2022/11/17 02:45:16;;;;;;;5.13;3.20;;;;;;;;;;5021581;28;20057;-70
2022/11/17 02:47:45;;;;;;;3.83;3.38;;;;;;;;;;5015881;28;20648;-71
2022/11/17 02:50:12;;;;;;;5.93;3.17;;;;;;;;;;5010642;28;20053;-71
2022/11/17 02:52:39;;;;;;;4.70;2.63;;;;;;;;;;5005590;28;20530;-71
2022/11/17 02:55:07;;;;;;;5.35;2.97;;;;;;;;;;5005376;28;20058;-71
2022/11/17 02:57:35;;;;;;;4.45;3.05;;;;;;;;;;5016969;28;20062;-71
2022/11/17 03:00:04;;;;;;;4.25;2.67;;;;;;;;;;5015115;28;20488;-71
2022/11/17 03:02:31;;;;;;;3.35;2.58;;;;;;;;;;5018103;28;20061;-70
2022/11/17 03:05:11;;;;;;;4.18;2.70;;;;;;;;;;5005232;28;20054;-72
2022/11/17 03:07:44;;;;;;;5.45;2.70;;;;;;;;;;5005399;28;20137;-71
2022/11/17 03:10:12;;;;;;;4.85;2.70;;;;;;;;;;5021916;28;20053;-72
2022/11/17 03:12:54;;;;;;;5.97;2.60;;;;;;;;;;5019272;28;20054;-71
2022/11/17 03:15:26;;;;;;;6.72;3.03;;;;;;;;;;5021637;28;20128;-72
2022/11/17 03:17:58;;;;;;;3.00;2.47;;;;;;;;;;5014971;28;20331;-72
2022/11/17 03:20:32;;;;;;;4.57;2.83;;;;;;;;;;5021752;28;20602;-71
2022/11/17 03:23:04;;;;;;;2.72;2.28;;;;;;;;;;5008053;28;20046;-71
2022/11/17 03:25:33;;;;;;;2.78;2.28;;;;;;;;;;5016009;28;20043;-71
2022/11/17 03:28:02;;;;;;;4.10;2.45;;;;;;;;;;5020915;28;20097;-71
2022/11/17 03:30:28;;;;;;;5.35;2.30;;;;;;;;;;5021087;28;20054;-71
2022/11/17 03:33:06;;;;;;;4.43;2.47;;;;;;;;;;5017921;28;20515;-72
2022/11/17 03:35:34;;;;;;;4.28;2.47;;;;;;;;;;5021086;28;20117;-72
2022/11/17 03:38:05;;;;;;;6.32;2.67;;;;;;;;;;5018842;28;20056;-70
2022/11/17 03:40:33;;;;;;;4.95;2.22;;;;;;;;;;5022425;28;20522;-72
2022/11/17 03:43:02;;;;;;;5.28;2.55;;;;;;;;;;5020929;28;20057;-71
2022/11/17 03:45:31;;;;;;;3.55;2.42;;;;;;;;;;5021461;28;20061;-71
2022/11/17 03:48:17;;;;;;;5.20;2.78;;;;;;;;;;5010753;28;20058;-71
2022/11/17 03:50:58;;;;;;;4.40;2.55;;;;;;;;;;5012221;28;20050;-71
2022/11/17 03:53:24;;;;;;;3.92;2.17;;;;;;;;;;5018653;28;20081;-71
2022/11/17 03:56:01;;;;;;;6.40;2.97;;;;;;;;;;5018665;28;20046;-72
2022/11/17 03:58:30;;;;;;;6.20;2.92;;;;;;;;;;5018821;28;20052;-72
2022/11/17 04:00:57;;;;;;;3.38;1.95;;;;;;;;;;5017084;28;20059;-71
2022/11/17 04:03:27;;;;;;;2.47;2.10;;;;;;;;;;5019599;28;20542;-72
2022/11/17 04:05:54;;;;;;;4.43;2.28;;;;;;;;;;5012453;28;20124;-73
2022/11/17 04:08:22;;;;;;;4.00;2.60;;;;;;;;;;5017477;28;20054;-71
2022/11/17 04:16:18;;;;;;;3.30;2.53;;;;;;;;;;5018556;28;20553;-71
2022/11/17 04:18:44;;;;;;;3.60;2.47;;;;;;;;;;5012519;28;20852;-73
2022/11/17 04:21:11;;;;;;;3.58;2.70;;;;;;;;;;5003571;28;20056;-71
2022/11/17 04:23:37;;;;;;;5.25;3.20;;;;;;;;;;5017097;28;20053;-71
2022/11/17 04:28:49;;;;;;;2.80;2.33;;;;;;;;;;5019360;28;20520;-72
2022/11/17 04:31:18;;;;;;;4.57;2.40;;;;;;;;;;5011878;28;20058;-72
2022/11/17 04:33:49;;;;;;;5.38;2.63;;;;;;;;;;5004376;28;20054;-71
2022/11/17 04:36:16;;;;;;;3.67;2.45;;;;;;;;;;5009957;28;20054;-71
2022/11/17 04:38:44;;;;;;;5.82;2.55;;;;;;;;;;5019040;28;20602;-73
2022/11/17 04:43:56;;;;;;;2.80;2.50;;;;;;;;;;5014152;28;20050;-71
2022/11/17 04:46:22;;;;;;;2.33;2.15;;;;;;;;;;5017882;28;20058;-71
2022/11/17 04:48:50;;;;;;;4.50;2.58;;;;;;;;;;5010656;28;20054;-72
2022/11/17 04:51:17;;;;;;;6.72;2.63;;;;;;;;;;5014877;28;20073;-72
2022/11/17 04:53:43;;;;;;;5.55;2.60;;;;;;;;;;5019806;28;20424;-71
2022/11/17 04:56:09;;;;;;;2.60;2.20;;;;;;;;;;5020669;28;20069;-72
2022/11/17 04:58:36;;;;;;;4.97;2.20;;;;;;;;;;5017541;28;20054;-72
2022/11/17 05:01:11;;;;;;;3.22;2.28;;;;;;;;;;5009011;28;20097;-70
2022/11/17 05:03:37;;;;;;;;;;;;;;;;;;5015459;28;20054;-72
2022/11/17 05:06:04;;;;;;;3.50;2.17;;;;;;;;;;5020062;28;45387;-73
2022/11/17 05:08:30;;;;;;;5.13;2.42;;;;;;;;;;5020205;28;20354;-71
2022/11/17 05:13:42;;;;;;;4.30;2.80;;;;;;;;;;5015011;28;20077;-72
2022/11/17 05:18:53;;;;;;;4.65;2.67;;;;;;;;;;5012086;28;20046;-70
2022/11/17 05:21:19;;;;;;;4.88;2.30;;;;;;;;;;5013506;28;20050;-71
2022/11/17 05:23:54;;;;;;;4.25;2.90;;;;;;;;;;5021997;28;20104;-71
2022/11/17 05:26:22;;;;;;;2.97;2.40;;;;;;;;;;5015441;28;20054;-71
2022/11/17 05:28:48;;;;;;;4.65;2.67;;;;;;;;;;5047907;28;20104;-71
2022/11/17 05:31:15;;;;;;;5.03;2.85;;;;;;;;;;5017066;28;20113;-72
2022/11/17 05:33:41;;;;;;;6.07;3.13;;;;;;;;;;5019831;28;20081;-70
2022/11/17 05:36:09;;;;;;;4.97;3.25;;;;;;;;;;5025100;28;20050;-73
2022/11/17 05:38:35;;;;;;;3.40;2.80;;;;;;;;;;5019270;28;20061;-72
2022/11/17 05:41:02;;;;;;;4.93;3.03;;;;;;;;;;5009427;28;20053;-71
2022/11/17 05:43:28;;;;;;;4.18;3.13;;;;;;;;;;5023582;28;20542;-72
2022/11/17 05:45:54;;;;;;;5.20;2.80;;;;;;;;;;5021525;28;20563;-71
2022/11/17 05:48:21;;;;;;;4.72;3.20;;;;;;;;;;5015599;28;20058;-71
2022/11/17 05:50:47;;;;;;;5.53;3.35;;;;;;;;;;5014931;28;20042;-72
2022/11/17 05:53:13;;;;;;;3.72;3.28;;;;;;;;;;5012695;28;20057;-71
2022/11/17 05:55:39;;;;;;;6.18;3.80;;;;;;;;;;5024024;28;20057;-71
2022/11/17 05:58:12;;;;;;;4.78;3.30;;;;;;;;;;5023756;28;20504;-72
2022/11/17 06:00:39;;;;;;;5.95;3.53;;;;;;;;;;5024689;28;20519;-72
2022/11/17 06:03:17;;;;;;;4.75;3.33;;;;;;;;;;5023028;28;20104;-71
2022/11/17 06:05:44;;;;;;;5.05;3.17;;;;;;;;;;5021901;28;20081;-72
2022/11/17 06:08:10;;;;;;;4.75;3.13;;;;;;;;;;5012618;28;20519;-71
2022/11/17 06:10:37;;;;;;;4.40;3.33;;;;;;;;;;5022743;28;20053;-71
2022/11/17 06:13:03;;;;;;;2.95;2.60;;;;;;;;;;5023843;28;20061;-71
2022/11/17 06:15:29;;;;;;;3.17;2.85;;;;;;;;;;5023779;28;20058;-71
2022/11/17 06:17:58;;;;;;;3.97;3.13;;;;;;;;;;5022151;28;20459;-72
2022/11/17 06:20:31;;;;;;;3.78;2.67;;;;;;;;;;5023372;28;20058;-72
2022/11/17 06:23:00;;;;;;;3.90;3.50;;;;;;;;;;5023395;28;20057;-72
2022/11/17 06:25:27;;;;;;;6.50;3.22;;;;;;;;;;5020542;28;20050;-72
2022/11/17 06:27:53;;;;;;;5.55;2.80;;;;;;;;;;5023428;28;20104;-72
2022/11/17 06:30:19;;;;;;;5.15;2.60;;;;;;;;;;5021124;28;20506;-72
2022/11/17 06:32:46;;;;;;;4.22;2.63;;;;;;;;;;5014108;28;20054;-71
2022/11/17 06:35:13;;;;;;;6.13;2.72;;;;;;;;;;5023381;28;20132;-72
2022/11/17 06:37:39;;;;;;;6.38;2.50;;;;;;;;;;5023510;28;20050;-71
2022/11/17 06:40:06;;;;;;;2.40;1.85;;;;;;;;;;5022085;28;20053;-71
2022/11/17 06:45:17;;;;;;;5.18;2.00;;;;;;;;;;5016782;28;20218;-72
2022/11/17 06:47:44;;;;;;;7.40;2.60;;;;;;;;;;5018760;28;20143;-71
2022/11/17 06:50:10;;;;;;;2.45;1.95;;;;;;;;;;5018625;28;20046;-72
2022/11/17 06:52:37;;;;;;;8.45;2.58;;;;;;;;;;5023747;28;20590;-72
2022/11/17 06:55:04;;;;;;;4.68;2.17;;;;;;;;;;5023135;28;20510;-71
2022/11/17 06:57:30;;;;;;;8.25;1.92;;;;;;;;;;5022697;28;20601;-72
2022/11/17 06:59:57;;;;;;;4.95;2.15;;;;;;;;;;5021137;28;20518;-72
2022/11/17 07:02:23;;;;;;;5.90;1.85;;;;;;;;;;5017020;28;20108;-72
2022/11/17 07:04:49;;;;;;;5.63;2.45;;;;;;;;;;5022462;28;20137;-72
2022/11/17 07:07:16;;;;;;;4.45;1.90;;;;;;;;;;5023376;28;20054;-72
2022/11/17 07:09:42;;;;;;;2.47;1.90;;;;;;;;;;5018224;28;20214;-70
2022/11/17 07:12:08;;;;;;;6.30;1.85;;;;;;;;;;5023529;28;20089;-71
2022/11/17 07:14:35;;;;;;;8.68;1.92;;;;;;;;;;5023470;28;20058;-71
2022/11/17 07:17:01;;;;;;;6.20;2.10;;;;;;;;;;5021909;28;20656;-73
2022/11/17 07:19:27;;;;;;;5.70;2.00;;;;;;;;;;5017886;28;20085;-72
2022/11/17 07:21:54;;;;;;;5.38;1.67;;;;;;;;;;5032917;28;20053;-71
2022/11/17 07:24:20;;;;;;;7.50;2.10;;;;;;;;;;5023782;28;20544;-72
2022/11/17 07:26:46;;;;;;;4.40;1.95;;;;;;;;;;5023584;28;20056;-71
2022/11/17 07:29:13;;;;;;;4.53;1.67;;;;;;;;;;5019690;28;20325;-72
2022/11/17 07:31:39;;;;;;;6.90;2.13;;;;;;;;;;5021368;28;20582;-70
2022/11/17 07:34:06;;;;;;;5.05;1.75;;;;;;;;;;5013624;28;20505;-71
2022/11/17 07:36:32;;;;;;;5.60;2.13;;;;;;;;;;5016414;28;20054;-71
2022/11/17 07:38:58;;;;;;;5.55;2.20;;;;;;;;;;5019393;28;20077;-72
2022/11/17 07:41:25;;;;;;;7.32;2.00;;;;;;;;;;5022265;28;20137;-71
2022/11/17 07:43:51;;;;;;;6.45;2.38;;;;;;;;;;5031498;28;20053;-71
2022/11/17 07:46:18;;;;;;;11.73;2.30;;;;;;;;;;5018328;28;20133;-72
2022/11/17 07:48:44;;;;;;;7.32;1.52;;;;;;;;;;5025571;28;20060;-71
2022/11/17 07:51:12;;;;;;;3.97;1.73;;;;;;;;;;5028090;28;20050;-70
2022/11/17 07:53:39;;;;;;;4.88;1.38;;;;;;;;;;5027918;28;20135;-71
2022/11/17 07:56:07;;;;;;;5.10;1.70;;;;;;;;;;5011352;28;20523;-71
2022/11/17 07:58:33;;;;;;;4.28;1.55;;;;;;;;;;5020447;28;20558;-72
2022/11/17 08:01:04;;;;;;;5.65;1.20;;;;;;;;;;5024565;28;20095;-72
2022/11/17 08:03:31;;;;;;;4.93;1.50;;;;;;;;;;5014099;28;20050;-71
2022/11/17 08:06:00;;;;;;;2.70;1.55;;;;;;;;;;5022586;28;20061;-73
2022/11/17 08:08:26;;;;;;;7.97;1.30;;;;;;;;;;5021416;28;20075;-72
2022/11/17 08:10:52;;;;;;;5.82;1.20;;;;;;;;;;5015581;28;20541;-71
2022/11/17 08:13:19;;;;;;;5.85;1.00;;;;;;;;;;5024296;28;20081;-71
2022/11/17 08:15:45;;;;;;;3.72;1.42;;;;;;;;;;5017473;28;20530;-72
2022/11/17 08:18:11;;;;;;;5.00;1.20;;;;;;;;;;5019561;28;20054;-71
2022/11/17 08:20:38;;;;;;;7.75;1.45;;;;;;;;;;5021469;28;20077;-72
2022/11/17 08:23:04;;;;;;;5.38;1.00;;;;;;;;;;5020689;28;20140;-71
2022/11/17 08:25:30;;;;;;;5.47;1.17;;;;;;;;;;5023449;28;20061;-72
2022/11/17 08:27:57;;;;;;;11.20;1.35;;;;;;;;;;5049367;28;20461;-71
2022/11/17 08:30:25;;;;;;;6.07;1.38;;;;;;;;;;5024900;28;20061;-71
2022/11/17 08:32:52;;;;;;;4.47;1.02;;;;;;;;;;5021511;28;20074;-71
2022/11/17 08:35:19;;;;;;;2.80;1.27;;;;;;;;;;5018560;28;20046;-71
2022/11/17 08:37:46;;;;;;;3.75;1.33;;;;;;;;;;5022407;28;20084;-71
2022/11/17 08:40:12;;;;;;;4.88;1.20;;;;;;;;;;5020167;28;20096;-72
2022/11/17 08:42:39;;;;;;;1.63;0.90;;;;;;;;;;5015576;28;20382;-71
2022/11/17 08:45:06;;;;;;;1.80;1.00;;;;;;;;;;5019864;28;20421;-72
2022/11/17 08:47:33;;;;;;;2.25;1.48;;;;;;;;;;5020011;28;20085;-72
2022/11/17 08:49:59;;;;;;;4.53;1.35;;;;;;;;;;5013432;28;20462;-71
2022/11/17 08:52:26;;;;;;;2.75;1.08;;;;;;;;;;5024854;28;20692;-72
2022/11/17 08:54:53;;;;;;;2.63;1.10;;;;;;;;;;5036388;28;20089;-72
2022/11/17 08:57:20;;;;;;;4.55;1.30;;;;;;;;;;5013986;28;20992;-72
2022/11/17 08:59:47;;;;;;;1.38;1.10;;;;;;;;;;5023467;28;20472;-73
2022/11/17 09:02:14;;;;;;;5.30;1.73;;;;;;;;;;5039924;28;20144;-72
2022/11/17 09:04:41;;;;;;;4.50;1.23;;;;;;;;;;5024801;28;20144;-71
2022/11/17 09:07:07;;;;;;;4.35;1.30;;;;;;;;;;5029074;28;20156;-71
2022/11/17 09:09:34;;;;;;;4.97;1.70;;;;;;;;;;5025162;28;20049;-73
2022/11/17 09:12:00;;;;;;;1.30;1.13;;;;;;;;;;5024291;28;20647;-71
2022/11/17 09:14:26;;;;;;;3.50;1.40;;;;;;;;;;5016393;28;20612;-73
2022/11/17 09:16:53;;;;;;;8.55;1.55;;;;;;;;;;5021713;28;20395;-72
2022/11/17 09:19:19;;;;;;;5.32;1.20;;;;;;;;;;5030472;28;20128;-71
2022/11/17 09:21:45;;;;;;;5.97;1.55;;;;;;;;;;5038394;28;20060;-73
2022/11/17 09:24:12;;;;;;;2.00;1.08;;;;;;;;;;5033619;28;20092;-70
2022/11/17 09:26:39;;;;;;;3.67;1.25;;;;;;;;;;5023851;28;20060;-72
2022/11/17 09:29:06;;;;;;;3.17;1.10;;;;;;;;;;5030028;28;20054;-71
2022/11/17 09:31:33;;;;;;;2.20;1.17;;;;;;;;;;5028386;28;20061;-71
2022/11/17 09:34:00;;;;;;;2.85;1.27;;;;;;;;;;5026484;28;20046;-72
2022/11/17 09:36:31;;;;;;;3.55;2.22;;;;;;;;;;5027343;28;20049;-72
2022/11/17 09:38:57;;;;;;;1.13;1.02;;;;;;;;;;5038546;28;20078;-72
2022/11/17 09:41:25;;;;;;;4.30;1.30;;;;;;;;;;5026811;28;20050;-72
2022/11/17 09:43:51;;;;;;;3.05;1.13;;;;;;;;;;5020385;28;20523;-72
2022/11/17 09:46:30;;;;;;;4.32;1.42;;;;;;;;;;5019949;28;20504;-71
2022/11/17 09:49:02;;;;;;;4.00;1.45;;;;;;;;;;5017882;28;20084;-72
2022/11/17 09:51:30;;;;;;;3.70;1.75;;;;;;;;;;5023856;28;20176;-73
2022/11/17 09:54:06;;;;;;;6.28;1.73;;;;;;;;;;5030198;28;20077;-72
2022/11/17 09:56:33;;;;;;;2.65;1.20;;;;;;;;;;5022444;28;20500;-72
2022/11/17 09:59:04;;;;;;;3.08;1.00;;;;;;;;;;5012885;28;20053;-71
2022/11/17 10:01:31;;;;;;;2.28;1.23;;;;;;;;;;5006887;28;20065;-72
2022/11/17 10:03:58;;;;;;;4.20;1.10;;;;;;;;;;5019602;28;20178;-72
2022/11/17 10:06:27;;;;;;;4.60;1.33;;;;;;;;;;5019126;28;20064;-72
2022/11/17 10:09:12;;;;;;;1.70;1.13;;;;;;;;;;5020107;28;20546;-72
2022/11/17 10:11:40;;;;;;;2.00;1.30;;;;;;;;;;5017136;28;20539;-72
2022/11/17 10:14:07;;;;;;;5.85;1.30;;;;;;;;;;5018743;28;20078;-71
2022/11/17 10:16:34;;;;;;;2.88;1.48;;;;;;;;;;5012700;28;20054;-72
2022/11/17 10:19:05;;;;;;;8.65;1.70;;;;;;;;;;5017187;28;20727;-72
2022/11/17 10:21:31;;;;;;;1.50;1.33;;;;;;;;;;5027278;28;20057;-72
2022/11/17 10:23:58;;;;;;;2.33;1.58;;;;;;;;;;5021635;28;20046;-72
2022/11/17 10:26:25;;;;;;;6.40;1.40;;;;;;;;;;5011899;28;20050;-71
2022/11/17 10:29:05;;;;;;;5.18;1.30;;;;;;;;;;5024411;28;20134;-71
2022/11/17 10:31:42;;;;;;;2.45;1.55;;;;;;;;;;5021902;28;20522;-71
2022/11/17 10:34:10;;;;;;;5.03;1.70;;;;;;;;;;5029008;28;20054;-71
2022/11/17 10:36:43;;;;;;;2.00;1.13;;;;;;;;;;5030167;28;20822;-72
2022/11/17 10:39:29;;;;;;;3.78;1.10;;;;;;;;;;5029527;28;20061;-70
2022/11/17 10:41:56;;;;;;;3.47;1.20;;;;;;;;;;5034179;28;20515;-70
2022/11/17 10:44:24;;;;;;;4.85;1.55;;;;;;;;;;5025230;28;20536;-71
2022/11/17 10:46:54;;;;;;;1.35;1.15;;;;;;;;;;5022609;28;20050;-70
2022/11/17 10:49:30;;;;;;;4.60;1.50;;;;;;;;;;5028448;28;20606;-70
2022/11/17 10:52:03;;;;;;;1.80;1.30;;;;;;;;;;5022665;28;20141;-71
2022/11/17 10:54:29;;;;;;;3.72;1.50;;;;;;;;;;5013705;28;20560;-70
2022/11/17 10:56:57;;;;;;;2.15;1.45;;;;;;;;;;5023534;28;20060;-70
2022/11/17 10:59:24;;;;;;;2.78;1.10;;;;;;;;;;5031126;28;20060;-70
2022/11/17 11:01:51;;;;;;;2.40;1.48;;;;;;;;;;5022481;28;20078;-71
2022/11/17 11:04:34;;;;;;;5.30;1.50;;;;;;;;;;5018236;28;20061;-72
2022/11/17 11:07:09;;;;;;;2.25;1.17;;;;;;;;;;5026795;28;20601;-72
2022/11/17 11:09:48;;;;;;;4.93;1.60;;;;;;;;;;5016569;28;20074;-71
2022/11/17 11:12:17;;;;;;;7.97;1.60;;;;;;;;;;5020504;28;20050;-71
2022/11/17 11:14:51;;;;;;;2.80;1.70;;;;;;;;;;5027116;28;20482;-71
2022/11/17 11:17:19;;;;;;;3.85;1.25;;;;;;;;;;5025499;28;20064;-72
2022/11/17 11:19:49;;;;;;;4.43;1.50;;;;;;;;;;5027164;28;20038;-71
2022/11/17 11:22:18;;;;;;;3.80;1.40;;;;;;;;;;5020902;28;20523;-71
2022/11/17 11:25:05;;;;;;;5.10;1.70;;;;;;;;;;5021696;28;20061;-73
2022/11/17 11:27:46;;;;;;;7.00;2.42;;;;;;;;;;5026118;28;20062;-73
2022/11/17 11:30:15;;;;;;;2.80;1.48;;;;;;;;;;5018099;28;20062;-72
2022/11/17 11:32:44;;;;;;;3.65;1.15;;;;;;;;;;5022677;28;20065;-74
2022/11/17 11:35:20;;;;;;;6.38;1.35;;;;;;;;;;5025989;28;20049;-72
2022/11/17 11:37:53;;;;;;;5.82;1.55;;;;;;;;;;5032553;28;20515;-72
2022/11/17 11:40:27;;;;;;;3.25;1.40;;;;;;;;;;5032777;28;20065;-73
2022/11/17 11:42:54;;;;;;;4.15;1.45;;;;;;;;;;5032356;28;20111;-73
2022/11/17 11:45:40;;;;;;;5.03;2.55;;;;;;;;;;5027364;28;20141;-73
2022/11/17 11:48:21;;;;;;;7.80;1.63;;;;;;;;;;5022339;28;20554;-71
2022/11/17 11:50:53;;;;;;;3.63;1.23;;;;;;;;;;5027447;28;20055;-74
2022/11/17 11:53:34;;;;;;;5.25;1.80;;;;;;;;;;5023541;28;20454;-72
2022/11/17 11:56:08;;;;;;;6.22;1.33;;;;;;;;;;5033367;28;20452;-72
2022/11/17 11:58:39;;;;;;;5.90;1.65;;;;;;;;;;5031550;28;20510;-73
2022/11/17 12:01:09;;;;;;;4.32;1.27;;;;;;;;;;5028099;28;20431;-73
2022/11/17 12:03:47;;;;;;;3.28;1.30;;;;;;;;;;5024629;28;20080;-72
2022/11/17 12:06:41;;;;;;;4.43;1.75;;;;;;;;;;5029878;28;20508;-72
2022/11/17 12:09:07;;;;;;;4.45;1.17;;;;;;;;;;5020755;28;20080;-73
2022/11/17 12:14:21;;;;;;;3.67;1.13;;;;;;;;;;5018915;28;20441;-72
2022/11/17 12:16:48;;;;;;;3.83;1.52;;;;;;;;;;5021702;28;20045;-72
2022/11/17 12:19:41;;;;;;;2.50;1.50;;;;;;;;;;5021404;28;20050;-73
2022/11/17 12:22:07;;;;;;;3.40;1.33;;;;;;;;;;5019318;28;20076;-73
2022/11/17 12:24:39;;;;;;;3.47;1.42;;;;;;;;;;5017969;28;20575;-74
2022/11/17 12:27:24;;;;;;;2.75;1.30;;;;;;;;;;5037033;28;20519;-74
2022/11/17 12:29:51;;;;;;;3.87;1.23;;;;;;;;;;5042774;28;20061;-73
2022/11/17 12:32:36;;;;;;;3.85;1.95;;;;;;;;;;5031181;28;20076;-73
2022/11/17 12:35:21;;;;;;;7.18;1.50;;;;;;;;;;5018801;28;20103;-72
2022/11/17 12:37:47;;;;;;;5.10;1.30;;;;;;;;;;5012658;28;20046;-72
2022/11/17 12:40:43;;;;;;;3.92;1.35;;;;;;;;;;5027423;28;20058;-73
2022/11/17 12:43:16;;;;;;;5.07;1.17;;;;;;;;;;5027910;28;20053;-72
2022/11/17 12:45:51;;;;;;;4.63;1.45;;;;;;;;;;5023752;28;20053;-71
2022/11/17 12:48:29;;;;;;;5.95;1.10;;;;;;;;;;5025536;28;20054;-72
2022/11/17 12:51:05;;;;;;;3.83;1.45;;;;;;;;;;5027011;28;20093;-73
2022/11/17 12:53:46;;;;;;;1.80;1.45;;;;;;;;;;5016082;28;20556;-72
2022/11/17 12:56:30;;;;;;;6.38;1.65;;;;;;;;;;5019962;28;20058;-71
2022/11/17 12:59:12;;;;;;;1.80;1.25;;;;;;;;;;5031039;28;20492;-72
2022/11/17 13:01:42;;;;;;;3.70;1.60;;;;;;;;;;5025070;28;20064;-71
2022/11/17 13:04:11;;;;;;;3.83;1.70;;;;;;;;;;5023548;28;20054;-72
2022/11/17 13:06:56;;;;;;;3.47;1.40;;;;;;;;;;5031587;28;20054;-72
2022/11/17 13:09:24;;;;;;;3.80;1.35;;;;;;;;;;5025627;28;20061;-71
2022/11/17 13:11:58;;;;;;;2.40;1.20;;;;;;;;;;5033565;28;20137;-72
2022/11/17 13:14:24;;;;;;;2.30;1.17;;;;;;;;;;5021463;28;20504;-72
2022/11/17 13:16:51;;;;;;;8.48;1.52;;;;;;;;;;5019669;28;20449;-72
2022/11/17 13:19:36;;;;;;;5.28;1.25;;;;;;;;;;5018639;28;20405;-72
2022/11/17 13:22:03;;;;;;;4.43;1.67;;;;;;;;;;5020328;28;20054;-72
2022/11/17 13:24:34;;;;;;;2.13;1.25;;;;;;;;;;5037566;28;20120;-71
2022/11/17 13:27:01;;;;;;;6.32;1.65;;;;;;;;;;5019233;28;20499;-72
2022/11/17 13:29:28;;;;;;;1.75;1.20;;;;;;;;;;5021772;28;20069;-72
2022/11/17 13:32:04;;;;;;;3.10;1.50;;;;;;;;;;5021548;28;20113;-72
2022/11/17 13:34:31;;;;;;;2.78;1.75;;;;;;;;;;5023204;28;20512;-71
2022/11/17 13:36:59;;;;;;;3.10;1.50;;;;;;;;;;5021698;28;20050;-72
2022/11/17 13:39:26;;;;;;;3.88;1.80;;;;;;;;;;5023574;28;20148;-72
2022/11/17 13:41:54;;;;;;;2.85;1.50;;;;;;;;;;5024249;28;20054;-72
2022/11/17 13:44:24;;;;;;;4.32;1.45;;;;;;;;;;5015347;28;20046;-72
2022/11/17 13:46:50;;;;;;;5.03;1.73;;;;;;;;;;5013401;28;20240;-72
2022/11/17 13:49:49;;;;;;;4.68;1.73;;;;;;;;;;5027495;28;20072;-72
2022/11/17 13:52:42;;;;;;;3.53;1.33;;;;;;;;;;5000124;28;20050;-72
2022/11/17 13:55:17;;;;;;;4.75;1.38;;;;;;;;;;5022002;28;20145;-72
2022/11/17 13:58:00;;;;;;;8.13;1.58;;;;;;;;;;5016416;28;20053;-72
2022/11/17 14:00:26;;;;;;;7.55;1.33;;;;;;;;;;5017288;28;20085;-72
2022/11/17 14:02:57;;;;;;;3.38;1.42;;;;;;;;;;5021739;28;20050;-73
2022/11/17 14:05:27;;;;;;;5.15;1.48;;;;;;;;;;5020803;28;20046;-73
2022/11/17 14:07:55;;;;;;;6.13;1.60;;;;;;;;;;5023652;28;20053;-72
2022/11/17 14:10:22;;;;;;;1.73;1.13;;;;;;;;;;5021163;28;20217;-72
2022/11/17 14:12:52;;;;;;;8.10;1.60;;;;;;;;;;5014737;28;20500;-71
2022/11/17 14:15:23;;;;;;;3.28;1.58;;;;;;;;;;5019733;28;20046;-72
2022/11/17 14:17:54;;;;;;;7.18;1.23;;;;;;;;;;5021565;28;20140;-71
2022/11/17 14:20:23;;;;;;;3.78;1.67;;;;;;;;;;5032871;28;20577;-72
2022/11/17 14:23:14;;;;;;;4.10;2.10;;;;;;;;;;5016444;28;20054;-73
2022/11/17 14:25:42;;;;;;;4.18;1.60;;;;;;;;;;5007279;28;20054;-72
2022/11/17 14:28:15;;;;;;;4.13;1.95;;;;;;;;;;5016608;28;20145;-72
2022/11/17 14:30:42;;;;;;;5.75;2.72;;;;;;;;;;5003778;28;20068;-71
2022/11/17 14:33:08;;;;;;;4.80;1.95;;;;;;;;;;5025696;28;20140;-73
2022/11/17 14:35:39;;;;;;;4.57;1.48;;;;;;;;;;5025963;28;20042;-72
2022/11/17 14:38:08;;;;;;;2.15;1.45;;;;;;;;;;5024494;28;20064;-72
2022/11/17 14:40:34;;;;;;;4.05;1.38;;;;;;;;;;5006648;28;20468;-71
2022/11/17 14:43:00;;;;;;;1.38;1.17;;;;;;;;;;5015931;28;20046;-73
2022/11/17 14:45:27;;;;;;;2.92;1.30;;;;;;;;;;5011350;28;20043;-73
2022/11/17 14:47:53;;;;;;;4.53;1.30;;;;;;;;;;5016683;28;20049;-73
2022/11/17 14:50:19;;;;;;;4.90;1.38;;;;;;;;;;5017204;28;20140;-73
2022/11/17 14:52:46;;;;;;;5.50;1.40;;;;;;;;;;5011529;28;20955;-72
2022/11/17 14:55:13;;;;;;;3.28;1.40;;;;;;;;;;5008816;28;20045;-72
2022/11/17 14:57:39;;;;;;;7.43;2.00;;;;;;;;;;5023066;28;20144;-72
2022/11/17 15:00:08;;;;;;;3.28;1.35;;;;;;;;;;5020474;28;20057;-74
2022/11/17 15:02:35;;;;;;;2.63;1.30;;;;;;;;;;5014488;28;20058;-71
2022/11/17 15:05:01;;;;;;;2.83;1.38;;;;;;;;;;5025664;28;20701;-73
2022/11/17 15:07:28;;;;;;;6.88;1.55;;;;;;;;;;5042048;28;20551;-72
2022/11/17 15:09:54;;;;;;;4.15;1.33;;;;;;;;;;5036605;28;20119;-72
2022/11/17 15:12:21;;;;;;;2.88;1.60;;;;;;;;;;5018654;28;20581;-72
2022/11/17 15:14:47;;;;;;;6.72;1.60;;;;;;;;;;5017954;28;20049;-72
2022/11/17 15:17:14;;;;;;;2.88;1.30;;;;;;;;;;5029556;28;20061;-72
2022/11/17 15:19:41;;;;;;;5.53;1.35;;;;;;;;;;5023609;28;20050;-73
2022/11/17 15:22:07;;;;;;;2.85;1.10;;;;;;;;;;5024331;28;20057;-72
2022/11/17 15:24:34;;;;;;;3.47;1.45;;;;;;;;;;5012787;28;20061;-73
2022/11/17 15:27:00;;;;;;;1.80;1.42;;;;;;;;;;5020403;28;20057;-73
2022/11/17 15:29:26;;;;;;;4.97;1.40;;;;;;;;;;5008296;28;20137;-73
2022/11/17 15:31:53;;;;;;;2.33;1.00;;;;;;;;;;5024714;28;20049;-73